Time;durP1;ratioP1;P1;durP2;ratioP2;P2;SDS_P1;SDS_P2;PMS_P1;PMS_P2;Temp;Humidity;BMP_temperature;BMP_pressure;BME280_temperature;BME280_humidity;BME280_pressure;Samples;Min_cycle;Max_cycle;Signal;HPM_P1;HPM_P2
2023/08/28 00:02:20;;;;;;;4.53;2.08;;;13.30;99.90;;;;;;5102040;28;20032;-60
2023/08/28 00:04:46;;;;;;;6.03;2.30;;;13.40;99.90;;;;;;5100197;28;20055;-59
2023/08/28 00:07:13;;;;;;;5.95;2.13;;;13.40;99.90;;;;;;5102095;28;20119;-60
2023/08/28 00:09:39;;;;;;;7.13;1.95;;;13.40;99.90;;;;;;5100619;28;20104;-59
2023/08/28 00:12:05;;;;;;;6.00;2.22;;;13.30;99.90;;;;;;5101642;28;20088;-59
2023/08/28 00:14:31;;;;;;;7.18;2.10;;;13.40;99.90;;;;;;5101068;28;20060;-59
2023/08/28 00:16:57;;;;;;;5.68;3.08;;;13.50;99.90;;;;;;5100434;28;20047;-59
2023/08/28 00:19:23;;;;;;;4.82;2.00;;;13.50;99.90;;;;;;5101388;28;20040;-59
2023/08/28 00:21:48;;;;;;;6.05;2.85;;;13.60;99.90;;;;;;5100147;28;20040;-59
2023/08/28 00:24:14;;;;;;;7.68;2.38;;;13.60;99.90;;;;;;5101755;28;20051;-59
2023/08/28 00:26:40;;;;;;;5.93;2.33;;;13.50;99.90;;;;;;5100008;28;20047;-58
2023/08/28 00:29:05;;;;;;;5.95;1.90;;;13.50;99.90;;;;;;5101622;28;20044;-59
2023/08/28 00:31:31;;;;;;;4.55;2.08;;;13.50;99.90;;;;;;5099283;28;20051;-58
2023/08/28 00:33:57;;;;;;;6.35;2.47;;;13.50;99.90;;;;;;5100227;28;20052;-59
2023/08/28 00:36:22;;;;;;;5.45;3.17;;;13.60;99.90;;;;;;5099828;28;20048;-59
2023/08/28 00:38:48;;;;;;;5.70;1.92;;;13.40;99.90;;;;;;5099900;28;20069;-60
2023/08/28 00:41:14;;;;;;;5.68;2.00;;;13.50;99.90;;;;;;5100944;28;20078;-59
2023/08/28 00:43:39;;;;;;;8.10;2.10;;;13.40;99.90;;;;;;5099603;28;20427;-59
2023/08/28 00:46:06;;;;;;;6.57;2.00;;;13.50;99.90;;;;;;5099713;28;20502;-58
2023/08/28 00:48:32;;;;;;;5.07;2.10;;;13.40;99.90;;;;;;5100032;28;20040;-59
2023/08/28 00:50:59;;;;;;;6.45;2.50;;;13.40;99.90;;;;;;5100236;28;20499;-59
2023/08/28 00:53:24;;;;;;;6.45;2.50;;;13.50;99.90;;;;;;5101007;28;20429;-59
2023/08/28 00:55:50;;;;;;;5.18;2.35;;;13.50;99.90;;;;;;5109917;28;20047;-59
2023/08/28 00:58:16;;;;;;;10.27;2.45;;;13.40;99.90;;;;;;5121272;28;20055;-59
2023/08/28 01:00:42;;;;;;;8.27;2.75;;;13.40;99.90;;;;;;5119737;28;20059;-58
2023/08/28 01:03:09;;;;;;;4.90;2.42;;;13.40;99.90;;;;;;5121319;28;20055;-58
2023/08/28 01:05:43;;;;;;;6.93;2.50;;;13.30;99.90;;;;;;5120278;28;20044;-59
2023/08/28 01:08:19;;;;;;;5.53;2.45;;;13.30;99.90;;;;;;5120527;28;20055;-59
2023/08/28 01:10:52;;;;;;;7.15;2.78;;;13.30;99.90;;;;;;5120860;28;20047;-59
2023/08/28 01:13:25;;;;;;;6.15;2.30;;;13.20;99.90;;;;;;5119431;28;20055;-59
2023/08/28 01:15:52;;;;;;;6.70;2.60;;;13.10;99.90;;;;;;5120966;28;20058;-59
2023/08/28 01:18:18;;;;;;;5.78;2.80;;;13.00;99.90;;;;;;5119605;28;20101;-59
2023/08/28 01:20:47;;;;;;;5.50;2.50;;;13.00;99.90;;;;;;5120556;28;20065;-59
2023/08/28 01:23:31;;;;;;;6.10;2.55;;;13.00;99.90;;;;;;5120371;28;20027;-59
2023/08/28 01:25:58;;;;;;;5.88;2.85;;;13.00;99.90;;;;;;5119578;28;20048;-59
2023/08/28 01:28:27;;;;;;;6.32;2.47;;;13.00;99.90;;;;;;5120281;28;20047;-59
2023/08/28 01:30:53;;;;;;;6.07;2.65;;;12.90;99.90;;;;;;5119145;28;20051;-59
2023/08/28 01:33:19;;;;;;;6.57;2.60;;;13.00;99.90;;;;;;5121000;28;20092;-60
2023/08/28 01:35:54;;;;;;;5.72;2.22;;;12.90;99.90;;;;;;5119963;28;20051;-61
2023/08/28 01:38:29;;;;;;;7.13;2.53;;;12.90;99.90;;;;;;5119479;28;20044;-59
2023/08/28 01:40:57;;;;;;;6.03;2.35;;;12.90;99.90;;;;;;5118902;28;20051;-59
2023/08/28 01:43:24;;;;;;;5.10;2.40;;;12.80;99.90;;;;;;5119062;28;20120;-59
2023/08/28 01:45:53;;;;;;;5.32;2.70;;;12.80;99.90;;;;;;5120529;28;20067;-59
2023/08/28 01:48:19;;;;;;;6.75;2.63;;;12.70;99.90;;;;;;5119183;28;20036;-59
2023/08/28 01:50:45;;;;;;;5.00;2.42;;;12.80;99.90;;;;;;5118609;28;20039;-59
2023/08/28 01:53:11;;;;;;;7.78;3.05;;;12.80;99.90;;;;;;5119332;28;20049;-59
2023/08/28 01:55:46;;;;;;;5.70;2.40;;;12.70;99.90;;;;;;5110450;28;20140;-59
2023/08/28 01:58:12;;;;;;;6.88;2.97;;;12.80;99.90;;;;;;5099538;28;20097;-59
2023/08/28 02:00:38;;;;;;;5.35;2.20;;;12.80;99.90;;;;;;5098646;28;20111;-59
2023/08/28 02:03:05;;;;;;;5.18;2.40;;;12.80;99.90;;;;;;5099829;28;20040;-59
2023/08/28 02:05:31;;;;;;;7.28;3.00;;;12.70;99.90;;;;;;5098827;28;20044;-59
2023/08/28 02:07:57;;;;;;;5.00;2.70;;;12.70;99.90;;;;;;5098786;28;20046;-59
2023/08/28 02:10:23;;;;;;;7.60;2.78;;;12.70;99.90;;;;;;5099444;28;20082;-59
2023/08/28 02:12:48;;;;;;;5.20;2.40;;;12.70;99.90;;;;;;5098533;28;20055;-59
2023/08/28 02:15:14;;;;;;;6.85;2.72;;;12.70;99.90;;;;;;5099206;28;20052;-58
2023/08/28 02:17:39;;;;;;;6.80;2.67;;;12.60;99.90;;;;;;5098191;28;20048;-59
2023/08/28 02:20:06;;;;;;;8.30;2.70;;;12.60;99.90;;;;;;5099497;28;20051;-59
2023/08/28 02:22:31;;;;;;;9.07;2.92;;;12.60;99.90;;;;;;5098626;28;20044;-59
2023/08/28 02:24:58;;;;;;;6.28;2.78;;;12.70;99.90;;;;;;5099208;28;20038;-59
2023/08/28 02:27:24;;;;;;;5.35;2.83;;;12.70;99.90;;;;;;5099307;28;20052;-59
2023/08/28 02:29:50;;;;;;;7.50;2.85;;;12.70;99.90;;;;;;5098388;28;20044;-59
2023/08/28 02:32:16;;;;;;;5.50;2.60;;;12.70;99.90;;;;;;5099270;28;20063;-59
2023/08/28 02:34:43;;;;;;;5.80;2.67;;;12.70;99.90;;;;;;5098127;28;20058;-59
2023/08/28 02:37:09;;;;;;;7.63;3.08;;;12.70;99.90;;;;;;5099114;28;20044;-59
2023/08/28 02:39:34;;;;;;;5.43;2.72;;;12.70;99.90;;;;;;5098513;28;20078;-58
2023/08/28 02:42:00;;;;;;;5.55;2.72;;;12.80;99.90;;;;;;5099126;28;20123;-59
2023/08/28 02:44:26;;;;;;;7.07;2.80;;;12.60;99.90;;;;;;5099048;28;20064;-59
2023/08/28 02:46:51;;;;;;;7.13;3.05;;;12.60;99.90;;;;;;5097916;28;20036;-58
2023/08/28 02:49:17;;;;;;;6.10;2.70;;;12.60;99.90;;;;;;5099028;28;20040;-59
2023/08/28 02:51:43;;;;;;;6.00;2.40;;;12.70;99.90;;;;;;5097787;28;20105;-59
2023/08/28 02:54:09;;;;;;;5.97;2.70;;;12.70;99.90;;;;;;5099302;28;20032;-59
2023/08/28 02:56:38;;;;;;;5.10;2.65;;;12.70;99.90;;;;;;5114897;28;20050;-59
2023/08/28 02:59:04;;;;;;;7.25;2.50;;;12.70;99.90;;;;;;5119601;28;20100;-58
2023/08/28 03:01:34;;;;;;;7.50;2.50;;;12.70;99.90;;;;;;5119313;28;20473;-58
2023/08/28 03:04:04;;;;;;;5.72;2.17;;;12.70;99.90;;;;;;5118749;28;20044;-59
2023/08/28 03:06:34;;;;;;;5.10;2.40;;;12.70;99.90;;;;;;5123332;28;20047;-58
2023/08/28 03:09:00;;;;;;;7.38;2.53;;;12.80;99.90;;;;;;5122263;28;20027;-58
2023/08/28 03:11:26;;;;;;;4.97;2.30;;;12.80;99.90;;;;;;5123479;28;20043;-59
2023/08/28 03:13:52;;;;;;;5.30;2.38;;;12.80;99.90;;;;;;5122253;28;20083;-59
2023/08/28 03:16:17;;;;;;;5.05;2.13;;;12.80;99.90;;;;;;5122923;28;20122;-59
2023/08/28 03:18:43;;;;;;;6.05;2.22;;;12.70;99.90;;;;;;5122275;28;20069;-58
2023/08/28 03:21:09;;;;;;;5.53;2.50;;;12.70;99.90;;;;;;5121889;28;20131;-58
2023/08/28 03:23:34;;;;;;;6.63;2.53;;;12.70;99.90;;;;;;5123008;28;20044;-58
2023/08/28 03:26:02;;;;;;;4.50;2.20;;;12.70;99.90;;;;;;5121501;28;20043;-59
2023/08/28 03:28:27;;;;;;;5.45;2.35;;;12.70;99.90;;;;;;5122972;28;20079;-59
2023/08/28 03:30:57;;;;;;;7.07;2.42;;;12.70;99.90;;;;;;5121934;28;20053;-59
2023/08/28 03:33:23;;;;;;;6.00;2.55;;;12.80;99.90;;;;;;5122480;28;20039;-59
2023/08/28 03:35:49;;;;;;;6.60;2.78;;;12.70;99.90;;;;;;5122565;28;20040;-58
2023/08/28 03:38:15;;;;;;;6.60;2.78;;;12.70;99.90;;;;;;5121512;28;20440;-59
2023/08/28 03:40:40;;;;;;;6.93;2.92;;;12.70;99.90;;;;;;5122895;28;20118;-58
2023/08/28 03:43:06;;;;;;;6.80;3.03;;;12.70;99.90;;;;;;5121265;28;20122;-60
2023/08/28 03:45:32;;;;;;;8.65;3.50;;;12.60;99.90;;;;;;5121349;28;20166;-59
2023/08/28 03:47:57;;;;;;;7.63;3.38;;;12.60;99.90;;;;;;5121090;28;20050;-58
2023/08/28 03:50:24;;;;;;;7.88;3.30;;;12.70;99.90;;;;;;5122392;27;20035;-57
2023/08/28 03:52:50;;;;;;;6.75;3.05;;;12.50;99.90;;;;;;5122167;27;20147;-58
2023/08/28 03:55:15;;;;;;;7.65;2.80;;;12.50;99.90;;;;;;5115775;28;20107;-59
2023/08/28 03:57:41;;;;;;;6.20;3.17;;;12.60;99.90;;;;;;5102101;28;20044;-59
2023/08/28 04:00:13;;;;;;;6.43;3.17;;;12.60;99.90;;;;;;5100401;28;20044;-59
2023/08/28 04:02:39;;;;;;;7.63;3.10;;;12.50;99.90;;;;;;5102069;28;20422;-58
2023/08/28 04:05:06;;;;;;;6.68;3.00;;;12.60;99.90;;;;;;5100392;28;20067;-58
2023/08/28 04:07:32;;;;;;;8.77;3.10;;;12.60;99.90;;;;;;5102321;28;20091;-59
2023/08/28 04:09:58;;;;;;;6.78;3.40;;;12.50;99.90;;;;;;5101149;28;20424;-58
2023/08/28 04:12:24;;;;;;;6.63;3.25;;;12.60;99.90;;;;;;5100723;28;20044;-59
2023/08/28 04:14:50;;;;;;;6.15;3.30;;;12.60;99.90;;;;;;5101541;28;20059;-59
2023/08/28 04:17:16;;;;;;;6.53;3.28;;;12.60;99.90;;;;;;5099866;28;20051;-59
2023/08/28 04:19:42;;;;;;;6.45;2.90;;;12.70;99.90;;;;;;5101539;28;20118;-59
2023/08/28 04:22:08;;;;;;;6.63;3.70;;;12.60;99.90;;;;;;5100250;28;20104;-59
2023/08/28 04:24:34;;;;;;;8.05;3.22;;;12.70;99.90;;;;;;5101758;28;20044;-58
2023/08/28 04:26:59;;;;;;;7.55;3.20;;;12.70;99.90;;;;;;5100886;28;20042;-58
2023/08/28 04:29:25;;;;;;;6.00;3.38;;;12.60;99.90;;;;;;5100794;28;20078;-59
2023/08/28 04:31:52;;;;;;;6.18;3.30;;;12.70;99.90;;;;;;5101146;28;20055;-58
2023/08/28 04:34:18;;;;;;;5.50;2.97;;;12.70;99.90;;;;;;5099851;28;20100;-59
2023/08/28 04:36:43;;;;;;;7.25;3.20;;;12.60;99.90;;;;;;5101413;28;20081;-58
2023/08/28 04:39:09;;;;;;;7.57;3.00;;;12.70;99.90;;;;;;5099834;28;20044;-59
2023/08/28 04:41:35;;;;;;;10.40;4.00;;;12.80;99.90;;;;;;5101515;28;20089;-58
2023/08/28 04:44:01;;;;;;;7.25;3.20;;;12.80;99.90;;;;;;5099851;28;20071;-57
2023/08/28 04:46:28;;;;;;;8.07;3.88;;;12.90;99.90;;;;;;5100874;28;20511;-59
2023/08/28 04:48:53;;;;;;;5.70;3.20;;;12.90;99.90;;;;;;5100504;28;20476;-59
2023/08/28 04:51:19;;;;;;;7.80;3.15;;;12.90;99.90;;;;;;5099821;28;20079;-59
2023/08/28 04:53:45;;;;;;;6.03;3.15;;;12.80;99.90;;;;;;5082431;28;20048;-59
2023/08/28 04:56:11;;;;;;;8.18;4.10;;;12.80;99.90;;;;;;5112847;28;20047;-59
2023/08/28 04:58:37;;;;;;;5.57;2.67;;;12.70;99.90;;;;;;5121487;28;20095;-58
2023/08/28 05:01:03;;;;;;;5.72;3.20;;;12.80;99.90;;;;;;5120300;28;20048;-59
2023/08/28 05:03:29;;;;;;;7.25;3.22;;;12.80;99.90;;;;;;5120929;28;20040;-58
2023/08/28 05:05:55;;;;;;;8.80;3.38;;;12.90;99.90;;;;;;5120832;28;20421;-59
2023/08/28 05:08:20;;;;;;;6.22;3.00;;;12.80;99.90;;;;;;5119746;28;20035;-58
2023/08/28 05:10:46;;;;;;;5.90;3.10;;;12.80;99.90;;;;;;5120680;28;20055;-59
2023/08/28 05:13:12;;;;;;;7.30;3.20;;;12.90;99.90;;;;;;5119597;28;20047;-59
2023/08/28 05:15:38;;;;;;;6.88;3.47;;;12.90;99.90;;;;;;5120860;28;20063;-58
2023/08/28 05:18:04;;;;;;;10.48;4.18;;;12.90;99.90;;;;;;5119537;28;20043;-58
2023/08/28 05:20:30;;;;;;;5.88;3.33;;;12.90;99.90;;;;;;5120865;28;20077;-59
2023/08/28 05:22:55;;;;;;;6.38;3.03;;;13.10;99.90;;;;;;5120287;28;20075;-58
2023/08/28 05:25:21;;;;;;;6.05;3.22;;;13.00;99.90;;;;;;5119582;28;20039;-59
2023/08/28 05:27:47;;;;;;;5.40;3.15;;;13.10;99.90;;;;;;5119582;28;20047;-58
2023/08/28 05:30:13;;;;;;;5.82;2.88;;;13.10;99.90;;;;;;5119280;28;20044;-58
2023/08/28 05:32:38;;;;;;;6.43;3.33;;;13.20;99.90;;;;;;5120530;28;20123;-59
2023/08/28 05:35:05;;;;;;;10.75;4.32;;;13.30;99.90;;;;;;5119370;28;20047;-57
2023/08/28 05:37:31;;;;;;;7.03;3.30;;;13.30;99.90;;;;;;5120331;28;20099;-58
2023/08/28 05:39:57;;;;;;;5.90;2.90;;;13.40;99.90;;;;;;5119983;28;20050;-57
2023/08/28 05:42:23;;;;;;;6.65;3.30;;;13.40;99.90;;;;;;5119545;28;20110;-59
2023/08/28 05:44:49;;;;;;;6.15;3.08;;;13.40;99.90;;;;;;5120136;28;20047;-60
2023/08/28 05:47:14;;;;;;;8.02;3.35;;;13.50;99.90;;;;;;5115484;28;20040;-59
2023/08/28 05:49:40;;;;;;;5.57;3.22;;;13.50;99.90;;;;;;5116897;28;20044;-58
2023/08/28 05:52:06;;;;;;;6.10;3.53;;;13.50;99.90;;;;;;5115574;28;20502;-58
2023/08/28 05:54:32;;;;;;;6.00;2.88;;;13.60;99.90;;;;;;5117457;28;20059;-59
2023/08/28 05:56:57;;;;;;;6.05;3.25;;;13.50;99.90;;;;;;5096144;28;20044;-57
2023/08/28 05:59:23;;;;;;;6.03;3.05;;;13.60;99.90;;;;;;5095776;28;20079;-58
2023/08/28 06:01:48;;;;;;;6.57;3.20;;;13.70;99.90;;;;;;5096443;28;20053;-55
2023/08/28 06:04:14;;;;;;;7.60;3.45;;;13.70;99.90;;;;;;5095353;28;20224;-58
2023/08/28 06:06:40;;;;;;;5.93;3.25;;;13.70;99.90;;;;;;5096249;28;20067;-59
2023/08/28 06:09:07;;;;;;;6.45;3.22;;;13.70;99.90;;;;;;5094373;28;20120;-59
2023/08/28 06:11:33;;;;;;;5.70;3.38;;;13.80;99.90;;;;;;5096440;28;20044;-58
2023/08/28 06:13:59;;;;;;;7.97;3.70;;;13.80;99.90;;;;;;5095686;28;20095;-58
2023/08/28 06:16:25;;;;;;;8.77;3.80;;;13.90;99.90;;;;;;5095475;28;20415;-58
2023/08/28 06:18:51;;;;;;;6.32;3.30;;;14.00;99.90;;;;;;5096829;28;20044;-58
2023/08/28 06:21:16;;;;;;;7.85;3.40;;;14.00;99.90;;;;;;5105537;28;20047;-58
2023/08/28 06:23:42;;;;;;;7.95;3.75;;;14.00;99.90;;;;;;5103128;28;20669;-58
2023/08/28 06:26:08;;;;;;;7.40;3.65;;;14.10;99.90;;;;;;5098803;28;20044;-58
2023/08/28 06:28:34;;;;;;;7.55;3.38;;;14.10;99.90;;;;;;5095343;28;20044;-58
2023/08/28 06:31:02;;;;;;;8.23;3.55;;;14.10;99.90;;;;;;5094195;28;20070;-58
2023/08/28 06:33:28;;;;;;;8.43;3.50;;;14.10;99.90;;;;;;5094984;28;20126;-58
2023/08/28 06:35:54;;;;;;;8.35;3.40;;;14.10;99.90;;;;;;5094919;28;20150;-58
2023/08/28 06:38:20;;;;;;;6.72;3.60;;;14.20;99.90;;;;;;5094189;28;20040;-58
2023/08/28 06:40:52;;;;;;;5.88;2.90;;;14.30;99.90;;;;;;5098645;28;20048;-58
2023/08/28 06:43:18;;;;;;;6.95;3.15;;;14.40;99.90;;;;;;5098121;28;20044;-58
2023/08/28 06:45:45;;;;;;;7.03;3.08;;;14.40;99.90;;;;;;5098549;28;20055;-58
2023/08/28 06:48:11;;;;;;;6.90;3.22;;;14.50;99.90;;;;;;5098221;28;20489;-58
2023/08/28 06:50:37;;;;;;;6.93;3.13;;;14.60;99.90;;;;;;5097711;28;20055;-58
2023/08/28 06:53:03;;;;;;;7.22;3.15;;;14.70;99.90;;;;;;5099087;28;20063;-58
2023/08/28 06:55:30;;;;;;;8.02;2.88;;;14.80;99.90;;;;;;5105591;28;20047;-58
2023/08/28 06:57:56;;;;;;;5.72;2.83;;;14.90;99.90;;;;;;5117515;28;20126;-58
2023/08/28 07:00:21;;;;;;;6.70;3.25;;;14.90;99.90;;;;;;5118331;28;20075;-59
2023/08/28 07:02:47;;;;;;;9.63;3.30;;;15.00;99.90;;;;;;5120046;28;20067;-58
2023/08/28 07:05:13;;;;;;;5.57;3.00;;;15.20;99.90;;;;;;5118507;28;20047;-57
2023/08/28 07:07:39;;;;;;;6.03;3.53;;;15.10;99.90;;;;;;5119231;28;20060;-58
2023/08/28 07:10:06;;;;;;;6.93;3.22;;;15.20;99.90;;;;;;5118685;28;20066;-58
2023/08/28 07:12:33;;;;;;;8.20;3.70;;;15.40;99.90;;;;;;5118320;28;20051;-58
2023/08/28 07:15:11;;;;;;;7.05;3.10;;;15.50;99.90;;;;;;5119265;28;20066;-58
2023/08/28 07:17:37;;;;;;;9.05;3.00;;;15.50;99.90;;;;;;5100245;28;20052;-58
2023/08/28 07:20:06;;;;;;;9.15;3.42;;;15.50;99.90;;;;;;5098528;28;20131;-58
2023/08/28 07:22:32;;;;;;;6.20;2.90;;;15.60;99.90;;;;;;5096771;28;20058;-57
2023/08/28 07:24:58;;;;;;;9.20;3.42;;;15.80;99.90;;;;;;5098545;28;20076;-58
2023/08/28 07:27:23;;;;;;;6.45;2.97;;;15.90;99.90;;;;;;5098236;28;20496;-57
2023/08/28 07:29:49;;;;;;;7.45;3.33;;;16.00;99.90;;;;;;5097397;28;20040;-60
2023/08/28 07:32:15;;;;;;;8.43;3.10;;;16.10;99.90;;;;;;5097397;28;20479;-58
2023/08/28 07:34:40;;;;;;;6.90;3.67;;;16.20;99.90;;;;;;5097264;28;20040;-58
2023/08/28 07:37:06;;;;;;;6.90;2.80;;;16.30;99.90;;;;;;5098625;28;20035;-59
2023/08/28 07:39:31;;;;;;;7.60;2.08;;;16.40;99.90;;;;;;5097441;28;20048;-58
2023/08/28 07:41:58;;;;;;;5.07;2.00;;;16.50;99.90;;;;;;5098223;28;20277;-59
2023/08/28 07:44:23;;;;;;;6.28;2.22;;;16.60;99.90;;;;;;5096551;28;20050;-60
2023/08/28 07:46:49;;;;;;;6.45;1.98;;;16.60;99.90;;;;;;5096572;28;20592;-58
2023/08/28 07:49:15;;;;;;;6.93;1.80;;;16.80;99.90;;;;;;5098064;28;20036;-59
2023/08/28 07:51:41;;;;;;;9.32;2.58;;;16.90;99.90;;;;;;5095779;28;20130;-60
2023/08/28 07:54:06;;;;;;;5.28;1.58;;;16.90;99.90;;;;;;5098493;28;20039;-58
2023/08/28 07:56:32;;;;;;;8.48;1.70;;;17.00;99.90;;;;;;5113614;28;20055;-58
2023/08/28 07:58:58;;;;;;;6.45;1.50;;;17.00;99.90;;;;;;5117966;27;20382;-57
2023/08/28 08:01:23;;;;;;;4.85;1.40;;;17.10;99.90;;;;;;5115062;28;20118;-58
2023/08/28 08:03:49;;;;;;;5.18;1.30;;;17.20;99.90;;;;;;5105878;28;20127;-58
2023/08/28 08:06:17;;;;;;;4.70;1.15;;;17.30;99.90;;;;;;5108304;28;20062;-57
2023/08/28 08:08:45;;;;;;;3.97;1.20;;;17.30;83.90;;;;;;5104430;28;20149;-58
2023/08/28 08:11:11;;;;;;;4.00;1.10;;;17.10;91.70;;;;;;5105919;28;20834;-58
2023/08/28 08:13:37;;;;;;;4.72;0.90;;;16.90;88.70;;;;;;5097229;28;20118;-58
2023/08/28 08:16:04;;;;;;;2.90;0.90;;;17.00;85.40;;;;;;5097698;28;20143;-58
2023/08/28 08:18:30;;;;;;;9.00;2.15;;;17.30;82.80;;;;;;5097020;28;20044;-58
2023/08/28 08:20:56;;;;;;;2.17;0.90;;;17.30;81.80;;;;;;5096627;28;20058;-58
2023/08/28 08:23:22;;;;;;;4.03;1.50;;;17.50;77.00;;;;;;5097030;28;20068;-58
2023/08/28 08:25:48;;;;;;;3.25;1.08;;;17.40;61.90;;;;;;5096478;28;20047;-58
2023/08/28 08:28:17;;;;;;;5.75;1.05;;;17.40;66.90;;;;;;5098993;28;20044;-58
2023/08/28 08:30:42;;;;;;;4.88;1.00;;;17.50;64.40;;;;;;5099882;28;20466;-58
2023/08/28 08:33:08;;;;;;;3.85;0.90;;;17.80;70.80;;;;;;5101065;28;20079;-57
2023/08/28 08:35:34;;;;;;;4.50;1.00;;;17.90;68.80;;;;;;5100570;28;20044;-57
2023/08/28 08:38:00;;;;;;;4.57;1.10;;;18.00;63.30;;;;;;5100494;28;20036;-58
2023/08/28 08:40:26;;;;;;;4.40;1.15;;;18.10;56.40;;;;;;5100583;28;20055;-58
2023/08/28 08:42:53;;;;;;;4.72;1.08;;;18.10;66.90;;;;;;5099312;28;20059;-57
2023/08/28 08:45:23;;;;;;;4.22;1.02;;;17.90;62.00;;;;;;5101139;28;20048;-58
2023/08/28 08:47:53;;;;;;;2.72;0.88;;;17.90;61.50;;;;;;5108282;28;20479;-59
2023/08/28 08:50:20;;;;;;;3.55;1.00;;;17.50;71.40;;;;;;5107057;28;20419;-59
2023/08/28 08:52:48;;;;;;;3.75;0.98;;;17.30;90.30;;;;;;5101322;28;20105;-59
2023/08/28 08:55:34;;;;;;;4.22;0.90;;;17.10;91.30;;;;;;5104967;28;20040;-61
2023/08/28 08:58:04;;;;;;;4.72;1.02;;;17.00;97.20;;;;;;5080084;28;20041;-59
2023/08/28 09:00:31;;;;;;;2.45;0.95;;;16.80;95.50;;;;;;5079100;28;20040;-59
2023/08/28 09:02:58;;;;;;;4.05;1.00;;;16.80;99.90;;;;;;5080018;28;20146;-60
2023/08/28 09:05:24;;;;;;;4.65;1.20;;;16.80;99.90;;;;;;5094649;28;20031;-59
2023/08/28 09:07:50;;;;;;;4.55;1.00;;;17.10;91.40;;;;;;5108670;28;20051;-59
2023/08/28 09:10:17;;;;;;;3.03;0.95;;;17.50;88.60;;;;;;5106270;28;20055;-58
2023/08/28 09:12:45;;;;;;;4.78;1.02;;;17.90;81.00;;;;;;5108952;28;20114;-59
2023/08/28 09:15:11;;;;;;;2.83;0.90;;;18.10;77.90;;;;;;5110088;28;20055;-58
2023/08/28 09:17:39;;;;;;;4.20;0.90;;;17.90;83.20;;;;;;5119017;28;20081;-58
2023/08/28 09:20:13;;;;;;;4.07;1.45;;;17.50;89.90;;;;;;5120387;28;20095;-58
2023/08/28 09:22:43;;;;;;;3.50;1.13;;;17.40;94.50;;;;;;5114230;28;20084;-58
2023/08/28 09:25:09;;;;;;;3.33;1.00;;;16.90;96.80;;;;;;5118256;28;20048;-59
2023/08/28 09:27:50;;;;;;;5.80;1.10;;;16.70;99.90;;;;;;5119864;28;20040;-63
2023/08/28 09:30:32;;;;;;;2.55;1.00;;;16.50;99.90;;;;;;5118641;28;20032;-67
2023/08/28 09:32:59;;;;;;;3.70;0.88;;;16.30;99.90;;;;;;5118985;28;20047;-66
2023/08/28 09:35:34;;;;;;;4.88;1.10;;;16.10;99.90;;;;;;5118804;28;20036;-64
2023/08/28 09:38:01;;;;;;;3.38;1.00;;;16.10;99.90;;;;;;5118078;28;20051;-62
2023/08/28 09:40:32;;;;;;;3.08;1.20;;;16.10;99.90;;;;;;5118379;28;20082;-61
2023/08/28 09:42:59;;;;;;;4.15;1.10;;;16.20;99.90;;;;;;5117757;28;20058;-60
2023/08/28 09:45:34;;;;;;;3.67;1.00;;;16.20;99.90;;;;;;5118917;28;20089;-60
2023/08/28 09:48:04;;;;;;;3.40;1.17;;;16.20;99.90;;;;;;5118170;28;20144;-59
2023/08/28 09:50:32;;;;;;;4.22;1.00;;;16.30;99.90;;;;;;5118406;28;20095;-60
2023/08/28 09:53:14;;;;;;;4.88;1.33;;;16.20;99.90;;;;;;5119434;28;20046;-60
2023/08/28 09:55:49;;;;;;;4.43;1.35;;;16.30;99.90;;;;;;5108999;28;20040;-59
2023/08/28 09:58:15;;;;;;;4.80;1.55;;;16.20;99.90;;;;;;5099914;28;20043;-58
2023/08/28 10:00:42;;;;;;;4.78;1.30;;;16.20;99.90;;;;;;5098192;28;20040;-58
2023/08/28 10:03:10;;;;;;;5.47;1.50;;;16.20;99.90;;;;;;5098327;28;20040;-56
2023/08/28 10:05:40;;;;;;;6.22;1.75;;;16.30;99.90;;;;;;5099091;28;20050;-59
2023/08/28 10:08:07;;;;;;;6.38;1.63;;;16.30;99.90;;;;;;5097380;28;20044;-59
2023/08/28 10:10:34;;;;;;;4.03;1.40;;;16.50;99.90;;;;;;5099224;28;20098;-59
2023/08/28 10:13:03;;;;;;;4.43;1.83;;;16.40;99.90;;;;;;5097994;28;20040;-59
2023/08/28 10:15:31;;;;;;;7.20;1.48;;;16.50;99.90;;;;;;5098402;28;20059;-58
2023/08/28 10:18:04;;;;;;;4.45;1.40;;;16.70;99.90;;;;;;5098062;28;20043;-58
2023/08/28 10:20:31;;;;;;;5.78;1.42;;;16.70;99.90;;;;;;5098748;28;20097;-59
2023/08/28 10:22:58;;;;;;;3.60;1.50;;;16.80;99.90;;;;;;5098837;28;20111;-58
2023/08/28 10:25:29;;;;;;;6.47;1.83;;;16.80;99.90;;;;;;5097770;28;20376;-58
2023/08/28 10:27:57;;;;;;;6.15;1.80;;;16.90;99.90;;;;;;5099208;28;20055;-59
2023/08/28 10:30:26;;;;;;;7.20;2.13;;;17.00;99.90;;;;;;5096821;28;20632;-58
2023/08/28 10:32:55;;;;;;;4.85;1.83;;;17.10;99.90;;;;;;5098081;28;20043;-58
2023/08/28 10:35:22;;;;;;;4.18;1.60;;;17.30;99.90;;;;;;5098250;28;20044;-58
2023/08/28 10:37:50;;;;;;;5.13;1.30;;;17.50;99.90;;;;;;5098134;28;20067;-58
2023/08/28 10:40:18;;;;;;;4.97;1.40;;;17.80;99.90;;;;;;5098548;28;20048;-59
2023/08/28 10:42:45;;;;;;;6.35;1.40;;;18.20;99.90;;;;;;5097624;28;20044;-58
2023/08/28 10:45:11;;;;;;;4.55;1.20;;;18.50;99.90;;;;;;5098816;28;20145;-58
2023/08/28 10:47:37;;;;;;;4.30;1.13;;;18.60;99.90;;;;;;5079863;28;20503;-56
2023/08/28 10:50:05;;;;;;;6.55;1.50;;;18.40;79.10;;;;;;5098788;28;20058;-57
2023/08/28 10:52:31;;;;;;;4.75;1.23;;;18.10;93.00;;;;;;5098275;28;20036;-64
2023/08/28 10:55:03;;;;;;;4.57;1.13;;;17.10;99.90;;;;;;5096581;28;20487;-66
2023/08/28 10:57:29;;;;;;;4.05;1.17;;;16.90;99.90;;;;;;5097499;28;20048;-64
2023/08/28 10:59:59;;;;;;;3.92;1.25;;;16.80;99.90;;;;;;5097747;28;20112;-62
2023/08/28 11:02:25;;;;;;;3.78;1.52;;;16.70;99.90;;;;;;5098289;28;20059;-61
2023/08/28 11:04:51;;;;;;;2.75;1.10;;;16.80;99.90;;;;;;5097581;28;20094;-61
2023/08/28 11:07:23;;;;;;;5.03;1.40;;;16.80;99.90;;;;;;5098788;28;20107;-60
2023/08/28 11:09:49;;;;;;;4.63;1.45;;;16.80;99.90;;;;;;5098451;28;20041;-59
2023/08/28 11:12:18;;;;;;;5.18;1.35;;;16.90;99.90;;;;;;5097475;28;20051;-58
2023/08/28 11:14:53;;;;;;;3.85;1.20;;;16.90;99.90;;;;;;5098572;28;20052;-59
2023/08/28 11:17:21;;;;;;;4.47;1.33;;;17.00;99.90;;;;;;5096944;28;20061;-59
2023/08/28 11:19:55;;;;;;;5.07;1.08;;;17.00;99.90;;;;;;5098780;28;20123;-58
2023/08/28 11:22:35;;;;;;;3.00;1.20;;;17.10;99.90;;;;;;5097686;28;20082;-59
2023/08/28 11:25:04;;;;;;;3.38;1.00;;;17.30;99.90;;;;;;5098335;28;20044;-58
2023/08/28 11:27:44;;;;;;;3.88;1.00;;;17.70;99.90;;;;;;5101785;28;20075;-59
2023/08/28 11:30:11;;;;;;;2.60;0.90;;;18.10;99.90;;;;;;5099507;28;20052;-58
2023/08/28 11:32:42;;;;;;;2.63;0.93;;;18.40;99.90;;;;;;5102588;28;20127;-58
2023/08/28 11:35:09;;;;;;;4.65;1.17;;;18.60;99.90;;;;;;5099981;28;20053;-58
2023/08/28 11:37:37;;;;;;;2.83;0.85;;;18.40;67.70;;;;;;5100484;28;20119;-58
2023/08/28 11:40:08;;;;;;;2.10;0.63;;;18.40;56.70;;;;;;5102052;28;20040;-58
2023/08/28 11:42:35;;;;;;;2.20;0.77;;;18.30;32.20;;;;;;5101025;28;20076;-58
2023/08/28 11:45:01;;;;;;;3.13;0.80;;;18.60;51.80;;;;;;5101530;28;20040;-58
2023/08/28 11:47:28;;;;;;;3.70;0.75;;;18.60;30.20;;;;;;5100782;28;20047;-58
2023/08/28 11:49:55;;;;;;;2.70;0.98;;;18.70;50.40;;;;;;5101680;28;20553;-58
2023/08/28 11:52:22;;;;;;;2.67;1.00;;;18.90;51.10;;;;;;5101112;28;20059;-58
2023/08/28 11:54:48;;;;;;;4.35;1.00;;;19.00;52.30;;;;;;5110509;28;20133;-57
2023/08/28 11:57:18;;;;;;;3.97;0.80;;;19.10;51.40;;;;;;5101616;28;20380;-58
2023/08/28 11:59:45;;;;;;;3.67;0.90;;;19.00;33.40;;;;;;5100516;28;20044;-58
2023/08/28 12:02:15;;;;;;;1.92;0.70;;;19.10;31.70;;;;;;5101641;28;20032;-57
2023/08/28 12:04:41;;;;;;;2.83;0.75;;;19.10;29.80;;;;;;5100334;28;20036;-58
2023/08/28 12:07:25;;;;;;;3.60;0.85;;;19.00;40.00;;;;;;5100864;28;20043;-60
2023/08/28 12:09:54;;;;;;;2.22;0.70;;;18.80;26.00;;;;;;5100829;28;20048;-57
2023/08/28 12:12:21;;;;;;;3.03;0.90;;;18.70;38.50;;;;;;5115949;28;20040;-59
2023/08/28 12:14:49;;;;;;;3.42;0.90;;;18.50;42.20;;;;;;5121909;28;20051;-59
2023/08/28 12:17:17;;;;;;;2.88;0.80;;;18.50;47.70;;;;;;5120104;28;20048;-59
2023/08/28 12:19:44;;;;;;;3.45;1.00;;;18.40;53.30;;;;;;5118268;28;20040;-58
2023/08/28 12:22:11;;;;;;;2.53;0.80;;;18.50;54.60;;;;;;5109232;28;20032;-58
2023/08/28 12:24:41;;;;;;;1.98;0.70;;;18.50;50.10;;;;;;5113833;28;20051;-58
2023/08/28 12:27:11;;;;;;;1.55;0.85;;;18.60;41.30;;;;;;5120953;28;20510;-58
2023/08/28 12:29:38;;;;;;;3.05;0.82;;;18.80;42.90;;;;;;5120304;28;20040;-58
2023/08/28 12:32:15;;;;;;;4.00;0.98;;;19.00;36.00;;;;;;5120900;28;20043;-58
2023/08/28 12:34:41;;;;;;;6.20;1.25;;;19.10;29.60;;;;;;5120045;28;20059;-58
2023/08/28 12:37:13;;;;;;;2.33;0.82;;;19.10;31.20;;;;;;5121153;28;20475;-57
2023/08/28 12:39:52;;;;;;;2.58;0.90;;;19.20;35.10;;;;;;5120787;28;20043;-57
2023/08/28 12:42:20;;;;;;;3.67;1.02;;;19.40;30.80;;;;;;5120354;28;20031;-58
2023/08/28 12:44:45;;;;;;;2.80;1.02;;;19.60;36.70;;;;;;5121304;28;20047;-58
2023/08/28 12:47:12;;;;;;;3.92;1.10;;;19.80;32.70;;;;;;5120191;27;20071;-58